createdAt,value
2023-02-24T00:01:37.718Z,54.10
2023-02-24T00:04:08.357Z,50.47
2023-02-24T00:06:38.779Z,49.20
2023-02-24T00:09:09.750Z,53.47
2023-02-24T00:11:40.674Z,58.50
2023-02-24T00:14:10.049Z,48.97
2023-02-24T00:16:38.620Z,51.63
2023-02-24T00:19:08.157Z,51.23
2023-02-24T00:21:36.798Z,51.90
2023-02-24T00:24:04.896Z,53.43
2023-02-24T00:26:32.862Z,49.57
2023-02-24T00:29:04.975Z,52.90
2023-02-24T00:31:33.232Z,53.93
2023-02-24T00:34:02.704Z,51.37
2023-02-24T00:36:33.839Z,59.63
2023-02-24T00:39:09.212Z,56.37
2023-02-24T00:41:38.490Z,54.23
2023-02-24T00:44:09.937Z,50.10
2023-02-24T00:46:41.325Z,51.17
2023-02-24T00:49:17.000Z,49.80
2023-02-24T00:51:47.225Z,50.73
2023-02-24T00:54:16.142Z,49.73
2023-02-24T00:56:45.215Z,56.83
2023-02-24T00:59:16.018Z,56.40
2023-02-24T01:01:45.187Z,54.70
2023-02-24T01:04:14.612Z,56.57
2023-02-24T01:06:47.410Z,55.53
2023-02-24T01:09:17.826Z,52.50
2023-02-24T01:12:04.497Z,53.80
2023-02-24T01:14:36.131Z,49.37
2023-02-24T01:17:05.334Z,50.93
2023-02-24T01:19:34.446Z,56.87
2023-02-24T01:22:04.357Z,50.73
2023-02-24T01:24:34.311Z,55.60
2023-02-24T01:27:02.941Z,54.03
2023-02-24T01:29:30.940Z,49.17
2023-02-24T01:32:00.450Z,55.70
2023-02-24T01:34:29.118Z,50.03
2023-02-24T01:36:59.076Z,53.33
2023-02-24T01:39:26.986Z,61.33
2023-02-24T01:41:55.279Z,52.27
2023-02-24T01:45:12.707Z,53.00
2023-02-24T01:47:43.503Z,51.60
2023-02-24T01:50:15.969Z,55.90
2023-02-24T01:52:47.425Z,52.67
2023-02-24T01:55:22.102Z,53.77
2023-02-24T01:57:53.653Z,56.30
2023-02-24T02:00:38.325Z,55.87
2023-02-24T02:03:24.292Z,61.87
2023-02-24T02:05:54.267Z,53.47
2023-02-24T02:08:24.439Z,52.83
2023-02-24T02:10:58.695Z,55.20
2023-02-24T02:13:29.255Z,53.73
2023-02-24T02:16:22.208Z,54.40
2023-02-24T02:19:00.712Z,56.40
2023-02-24T02:21:56.671Z,60.13
2023-02-24T02:24:34.108Z,55.17
2023-02-24T02:27:39.945Z,54.97
2023-02-24T02:30:46.389Z,54.17
2023-02-24T02:33:56.128Z,55.67
2023-02-24T02:36:31.289Z,51.30
2023-02-24T02:39:08.095Z,55.43
2023-02-24T02:41:47.797Z,54.67
2023-02-24T02:44:21.761Z,55.67
2023-02-24T02:46:54.305Z,61.80
2023-02-24T02:49:30.632Z,55.20
2023-02-24T02:52:05.957Z,58.10
2023-02-24T02:54:40.332Z,59.20
2023-02-24T02:57:12.663Z,57.67
2023-02-24T02:59:49.254Z,60.77
2023-02-24T03:02:21.065Z,67.40
2023-02-24T03:04:53.612Z,60.73
2023-02-24T03:07:30.867Z,70.13
2023-02-24T03:10:02.060Z,60.73
2023-02-24T03:12:32.985Z,63.27
2023-02-24T03:15:04.608Z,62.57
2023-02-24T03:17:37.000Z,65.27
2023-02-24T03:20:15.857Z,76.73
2023-02-24T03:22:50.256Z,64.47
2023-02-24T03:25:24.128Z,70.57
2023-02-24T03:27:57.029Z,70.97
2023-02-24T03:30:29.945Z,65.47
2023-02-24T03:33:03.445Z,69.53
2023-02-24T03:35:37.180Z,70.83
2023-02-24T03:38:07.127Z,74.50
2023-02-24T03:40:36.043Z,72.60
2023-02-24T03:43:09.984Z,75.20
2023-02-24T03:45:40.664Z,74.73
2023-02-24T03:48:11.866Z,76.40
2023-02-24T03:50:42.742Z,71.77
2023-02-24T03:53:32.886Z,85.97
2023-02-24T03:56:10.899Z,82.70
2023-02-24T03:58:55.407Z,80.40
2023-02-24T04:01:34.782Z,85.80
2023-02-24T04:04:10.463Z,86.93
2023-02-24T04:06:56.424Z,86.43
2023-02-24T04:09:34.116Z,79.53
2023-02-24T04:12:17.164Z,94.03
2023-02-24T04:14:51.263Z,99.50
2023-02-24T04:17:23.504Z,92.23
2023-02-24T04:19:57.360Z,96.90
2023-02-24T04:22:27.492Z,94.27
2023-02-24T04:25:00.688Z,94.90
2023-02-24T04:27:29.709Z,96.10
2023-02-24T04:30:11.733Z,91.50
2023-02-24T04:32:42.757Z,98.77
2023-02-24T04:35:14.384Z,97.07
2023-02-24T04:37:45.980Z,103.57
2023-02-24T04:40:18.326Z,100.90
2023-02-24T04:42:49.805Z,98.23
2023-02-24T04:45:19.391Z,100.67
2023-02-24T04:47:49.505Z,103.80
2023-02-24T04:50:23.753Z,97.53
2023-02-24T04:52:53.327Z,111.07
2023-02-24T04:55:24.512Z,107.43
2023-02-24T04:57:54.495Z,114.03
2023-02-24T05:00:26.381Z,114.40
2023-02-24T05:02:55.980Z,112.17
2023-02-24T05:05:27.226Z,114.07
2023-02-24T05:07:56.033Z,112.17
2023-02-24T05:10:27.958Z,114.07
2023-02-24T05:12:58.082Z,117.33
2023-02-24T05:15:31.042Z,107.63
2023-02-24T05:18:00.770Z,113.43
2023-02-24T05:20:47.062Z,114.23
2023-02-24T05:23:16.923Z,106.33
2023-02-24T05:25:46.402Z,118.77
2023-02-24T05:28:14.366Z,125.30
2023-02-24T05:30:42.341Z,125.30
2023-02-24T05:33:10.622Z,115.17
2023-02-24T05:35:39.458Z,129.10
2023-02-24T05:38:08.245Z,114.37
2023-02-24T05:40:36.365Z,121.60
2023-02-24T05:43:05.759Z,121.20
2023-02-24T05:45:34.508Z,122.27
2023-02-24T05:48:05.771Z,121.27
2023-02-24T05:50:33.656Z,125.40
2023-02-24T05:53:03.309Z,118.63
2023-02-24T05:55:31.868Z,121.03
2023-02-24T05:58:00.281Z,120.23
2023-02-24T06:00:29.761Z,114.53
2023-02-24T06:03:08.301Z,116.77
2023-02-24T06:05:39.577Z,109.97
2023-02-24T06:08:11.750Z,122.37
2023-02-24T06:10:41.307Z,117.70
2023-02-24T06:13:10.370Z,126.47
2023-02-24T06:15:41.687Z,117.47
2023-02-24T06:18:11.593Z,117.10
2023-02-24T06:20:40.258Z,126.77
2023-02-24T06:23:08.753Z,113.07
2023-02-24T06:25:38.598Z,119.37
2023-02-24T06:28:06.667Z,119.30
2023-02-24T06:30:35.174Z,126.63
2023-02-24T06:33:05.845Z,120.10
2023-02-24T06:35:33.889Z,115.17
2023-02-24T06:38:01.977Z,106.40
2023-02-24T06:40:31.267Z,115.50
2023-02-24T06:42:59.212Z,102.33
2023-02-24T06:45:27.238Z,103.60
2023-02-24T06:47:55.178Z,108.87
2023-02-24T06:50:24.665Z,121.80
2023-02-24T06:52:58.429Z,102.50
2023-02-24T06:55:26.470Z,102.63
2023-02-24T06:57:57.283Z,111.00
2023-02-24T07:00:36.893Z,106.53
2023-02-24T07:03:14.805Z,117.87
2023-02-24T07:05:50.559Z,110.57
2023-02-24T07:08:23.782Z,117.33
2023-02-24T07:10:56.144Z,114.73
2023-02-24T07:13:25.322Z,122.97
2023-02-24T07:15:53.348Z,125.13
2023-02-24T07:18:21.369Z,114.43
2023-02-24T07:20:50.696Z,122.27
2023-02-24T07:23:18.702Z,124.03
2023-02-24T07:25:47.168Z,119.90
2023-02-24T07:28:15.145Z,114.67
2023-02-24T07:30:43.680Z,119.77
2023-02-24T07:33:12.010Z,118.87
2023-02-24T07:35:42.366Z,117.93
2023-02-24T07:38:17.175Z,119.77
2023-02-24T07:40:46.462Z,121.30
2023-02-24T07:43:16.200Z,127.47
2023-02-24T07:45:48.058Z,122.10
2023-02-24T07:48:16.000Z,112.40
2023-02-24T07:50:43.913Z,112.33
2023-02-24T07:53:13.584Z,113.03
2023-02-24T07:55:41.720Z,132.67
2023-02-24T07:58:10.668Z,116.67
2023-02-24T08:00:58.610Z,118.40
2023-02-24T08:03:29.975Z,118.80
2023-02-24T08:06:12.838Z,111.53
2023-02-24T08:08:57.818Z,117.77
2023-02-24T08:11:27.843Z,117.97
2023-02-24T08:13:59.264Z,115.67
2023-02-24T08:16:39.337Z,109.10
2023-02-24T08:19:07.621Z,114.03
2023-02-24T08:21:38.251Z,119.47
2023-02-24T08:24:09.261Z,110.77
2023-02-24T08:26:44.712Z,110.03
2023-02-24T08:29:13.331Z,109.50
2023-02-24T08:31:43.195Z,103.20
2023-02-24T08:34:16.074Z,121.97
2023-02-24T08:36:48.365Z,100.17
2023-02-24T08:39:19.258Z,100.87
2023-02-24T08:41:51.320Z,108.20
2023-02-24T08:44:20.409Z,107.00
2023-02-24T08:46:50.302Z,107.93
2023-02-24T08:49:19.128Z,101.73
2023-02-24T08:51:49.286Z,105.10
2023-02-24T08:54:26.946Z,101.53
2023-02-24T08:56:56.947Z,96.63
2023-02-24T08:59:38.853Z,113.73
2023-02-24T09:02:18.325Z,104.93
2023-02-24T09:04:47.425Z,111.80
2023-02-24T09:07:17.452Z,108.43
2023-02-24T09:09:46.865Z,104.13
2023-02-24T09:12:21.956Z,96.00
2023-02-24T09:14:51.112Z,94.87
2023-02-24T09:17:30.823Z,98.30
2023-02-24T09:20:16.103Z,102.30
2023-02-24T09:22:57.234Z,96.80
2023-02-24T09:25:40.601Z,95.43
2023-02-24T09:28:11.056Z,91.53
2023-02-24T09:30:51.126Z,99.47
2023-02-24T09:33:22.440Z,102.47
2023-02-24T09:35:54.113Z,98.73
2023-02-24T09:38:46.030Z,88.47
2023-02-24T09:41:31.478Z,93.70
2023-02-24T09:44:03.823Z,87.87
2023-02-24T09:46:43.148Z,90.20
2023-02-24T09:49:18.401Z,87.57
2023-02-24T09:51:53.385Z,78.90
2023-02-24T09:54:24.646Z,83.93
2023-02-24T09:57:08.313Z,86.83
2023-02-24T10:00:01.095Z,81.30
2023-02-24T10:02:47.535Z,83.57
2023-02-24T10:05:27.315Z,81.97
2023-02-24T10:07:57.122Z,80.40
2023-02-24T10:10:29.085Z,77.80
2023-02-24T10:13:09.633Z,74.93
2023-02-24T10:15:59.138Z,70.77
2023-02-24T10:18:32.938Z,72.17
2023-02-24T10:21:15.461Z,67.47
2023-02-24T10:24:09.780Z,65.10
2023-02-24T10:26:59.551Z,56.17
2023-02-24T10:29:50.829Z,54.23
2023-02-24T10:32:23.942Z,55.30
2023-02-24T10:35:20.230Z,47.43
2023-02-24T10:37:49.164Z,55.10
2023-02-24T10:40:26.476Z,45.07
2023-02-24T10:43:10.398Z,44.50
2023-02-24T10:45:45.147Z,53.90
2023-02-24T10:48:40.348Z,46.40
2023-02-24T10:51:19.637Z,42.67
2023-02-24T10:54:09.545Z,45.87
2023-02-24T10:56:55.247Z,43.10
2023-02-24T10:59:37.291Z,43.80
2023-02-24T11:02:29.418Z,46.70
2023-02-24T11:05:16.848Z,50.67
2023-02-24T11:07:53.570Z,44.47
2023-02-24T11:10:33.143Z,47.23
2023-02-24T11:13:20.487Z,43.67
2023-02-24T11:16:09.166Z,37.00
2023-02-24T11:18:40.627Z,36.20
2023-02-24T11:21:12.059Z,41.37
2023-02-24T11:23:43.349Z,37.97
2023-02-24T11:26:17.673Z,39.83
2023-02-24T11:29:00.948Z,41.43
2023-02-24T11:31:51.938Z,40.97
2023-02-24T11:34:28.961Z,39.70
2023-02-24T11:37:09.128Z,44.60
2023-02-24T11:39:53.543Z,33.67
2023-02-24T11:42:27.096Z,36.87
2023-02-24T11:45:00.914Z,35.37
2023-02-24T11:47:36.797Z,40.63
2023-02-24T11:50:18.886Z,36.57
2023-02-24T11:52:50.543Z,33.53
2023-02-24T11:55:28.207Z,39.63
2023-02-24T11:57:59.270Z,35.70
2023-02-24T12:00:32.177Z,33.93
2023-02-24T12:03:04.813Z,36.10
2023-02-24T12:05:37.779Z,38.50
2023-02-24T12:08:16.163Z,37.17
2023-02-24T12:10:50.476Z,33.80
2023-02-24T12:13:24.701Z,38.10
2023-02-24T12:15:59.788Z,32.83
2023-02-24T12:18:34.123Z,42.70
2023-02-24T12:21:07.715Z,36.90
2023-02-24T12:23:39.300Z,33.73
2023-02-24T12:26:19.317Z,34.57
2023-02-24T12:29:16.137Z,35.13
2023-02-24T12:31:57.330Z,39.60
2023-02-24T12:34:38.384Z,39.30
2023-02-24T12:37:25.559Z,36.57
2023-02-24T12:40:04.221Z,44.13
2023-02-24T12:42:39.954Z,36.23
2023-02-24T12:45:16.953Z,41.40
2023-02-24T12:47:57.287Z,34.50
2023-02-24T12:50:32.174Z,41.33
2023-02-24T12:53:07.840Z,35.27
2023-02-24T12:55:46.904Z,31.57
2023-02-24T12:58:18.904Z,30.27
2023-02-24T13:01:02.600Z,31.43
2023-02-24T13:03:45.674Z,31.60
2023-02-24T13:06:19.758Z,28.17
2023-02-24T13:08:58.368Z,28.07
2023-02-24T13:11:39.544Z,26.63
2023-02-24T13:14:18.001Z,31.00
2023-02-24T13:16:46.143Z,27.20
2023-02-24T13:19:22.688Z,23.03
2023-02-24T13:21:59.649Z,25.47
2023-02-24T13:24:29.309Z,26.40
2023-02-24T13:27:07.471Z,23.93
2023-02-24T13:29:45.209Z,25.10
2023-02-24T13:32:28.806Z,28.00
2023-02-24T13:34:58.174Z,25.20
2023-02-24T13:37:31.560Z,27.00
2023-02-24T13:40:00.941Z,26.23
2023-02-24T13:42:31.294Z,24.57
2023-02-24T13:45:18.254Z,25.70
2023-02-24T13:48:15.986Z,26.23
2023-02-24T13:51:01.494Z,26.23
2023-02-24T13:53:41.668Z,20.53
2023-02-24T13:56:26.574Z,23.33
2023-02-24T13:59:05.053Z,22.23
2023-02-24T14:01:45.559Z,25.97
2023-02-24T14:04:18.085Z,21.87
2023-02-24T14:06:53.633Z,25.30
2023-02-24T14:09:26.560Z,17.97
2023-02-24T14:12:01.886Z,23.90
2023-02-24T14:14:30.756Z,25.07
2023-02-24T14:16:58.828Z,25.13
2023-02-24T14:19:27.186Z,17.87
2023-02-24T14:21:56.908Z,16.97
2023-02-24T14:24:25.192Z,23.10
2023-02-24T14:26:55.548Z,19.27
2023-02-24T14:29:31.760Z,18.63
2023-02-24T14:32:00.329Z,22.03
2023-02-24T14:34:32.270Z,19.77
2023-02-24T14:37:03.362Z,22.73
2023-02-24T14:39:34.136Z,19.70
2023-02-24T14:42:12.378Z,18.23
2023-02-24T14:44:44.968Z,24.07
2023-02-24T14:47:15.282Z,24.23
2023-02-24T14:49:52.420Z,23.83
2023-02-24T14:52:31.556Z,23.10
2023-02-24T14:55:03.128Z,22.93
2023-02-24T14:57:34.627Z,22.73
2023-02-24T15:00:11.815Z,23.57
2023-02-24T15:02:44.783Z,24.43
2023-02-24T15:05:12.960Z,26.47
2023-02-24T15:07:44.685Z,24.93
2023-02-24T15:10:22.189Z,23.67
2023-02-24T15:12:53.228Z,28.17
2023-02-24T15:15:26.935Z,24.17
2023-02-24T15:17:57.697Z,29.40
2023-02-24T15:20:32.222Z,27.80
2023-02-24T15:23:00.573Z,26.90
2023-02-24T15:25:42.005Z,34.70
2023-02-24T15:28:24.509Z,34.77
2023-02-24T15:31:04.759Z,31.37
2023-02-24T15:33:38.368Z,29.73
2023-02-24T15:36:17.221Z,22.47
2023-02-24T15:38:46.290Z,25.60
2023-02-24T15:41:15.233Z,23.90
2023-02-24T15:43:48.996Z,23.87
2023-02-24T15:46:25.251Z,20.50
2023-02-24T15:48:55.485Z,20.83
2023-02-24T15:51:32.396Z,19.00
2023-02-24T15:54:01.518Z,20.53
2023-02-24T15:56:29.844Z,19.70
2023-02-24T15:58:59.847Z,18.97
2023-02-24T16:01:29.867Z,20.93
2023-02-24T16:03:58.149Z,13.93
2023-02-24T16:06:28.384Z,17.93
2023-02-24T16:08:57.939Z,16.43
2023-02-24T16:11:29.732Z,15.50
2023-02-24T16:13:59.642Z,23.23
2023-02-24T16:16:29.529Z,22.30
2023-02-24T16:18:57.903Z,26.90
2023-02-24T16:21:25.906Z,21.93
2023-02-24T16:23:53.909Z,22.00
2023-02-24T16:26:24.057Z,24.53
2023-02-24T16:28:55.219Z,17.80
2023-02-24T16:31:23.971Z,21.10
2023-02-24T16:33:55.687Z,20.33
2023-02-24T16:36:25.501Z,22.70
2023-02-24T16:38:53.760Z,24.50
2023-02-24T16:41:21.941Z,18.70
2023-02-24T16:43:55.156Z,19.57
2023-02-24T16:46:24.993Z,22.20
2023-02-24T16:48:55.629Z,18.87
2023-02-24T16:51:31.491Z,23.97
2023-02-24T16:54:02.087Z,27.93
2023-02-24T16:56:31.448Z,22.30
2023-02-24T16:59:00.626Z,21.73
2023-02-24T17:01:29.766Z,20.40
2023-02-24T17:03:59.500Z,19.40
2023-02-24T17:06:27.994Z,19.70
2023-02-24T17:08:56.368Z,20.90
2023-02-24T17:11:30.393Z,20.33
2023-02-24T17:13:58.325Z,15.47
2023-02-24T17:16:26.555Z,21.80
2023-02-24T17:18:54.562Z,22.77
2023-02-24T17:21:24.766Z,24.63
2023-02-24T17:23:52.765Z,34.10
2023-02-24T17:26:21.063Z,32.63
2023-02-24T17:28:49.214Z,30.50
2023-02-24T17:31:17.301Z,39.03
2023-02-24T17:33:45.318Z,45.53
2023-02-24T17:36:13.237Z,65.80
2023-02-24T17:38:42.513Z,59.80
2023-02-24T17:41:10.772Z,52.50
2023-02-24T17:43:38.814Z,76.83
2023-02-24T17:46:07.492Z,55.93
2023-02-24T17:48:36.074Z,47.37
2023-02-24T17:51:04.096Z,37.43
2023-02-24T17:53:32.281Z,28.27
2023-02-24T17:56:06.490Z,33.07
2023-02-24T17:58:34.822Z,29.97
2023-02-24T18:01:03.455Z,23.17
2023-02-24T18:03:31.985Z,23.33
2023-02-24T18:06:01.558Z,24.07
2023-02-24T18:08:32.873Z,26.83
2023-02-24T18:11:01.413Z,27.90
2023-02-24T18:13:31.859Z,32.57
2023-02-24T18:16:00.517Z,27.63
2023-02-24T18:18:30.352Z,28.23
2023-02-24T18:21:02.679Z,32.17
2023-02-24T18:23:30.795Z,29.43
2023-02-24T18:26:02.084Z,43.87
2023-02-24T18:28:31.600Z,30.43
2023-02-24T18:31:00.578Z,31.17
2023-02-24T18:33:29.274Z,28.73
2023-02-24T18:36:00.687Z,25.47
2023-02-24T18:38:29.434Z,27.33
2023-02-24T18:41:01.547Z,35.63
2023-02-24T18:43:31.831Z,48.73
2023-02-24T18:46:00.763Z,50.30
2023-02-24T18:48:30.402Z,43.73
2023-02-24T18:50:59.540Z,46.97
2023-02-24T18:53:31.551Z,49.07
2023-02-24T18:56:01.421Z,43.43
2023-02-24T18:58:31.232Z,51.77
2023-02-24T19:00:59.220Z,47.87
2023-02-24T19:03:27.358Z,53.87
2023-02-24T19:05:55.314Z,52.63
2023-02-24T19:08:23.305Z,44.80
2023-02-24T19:10:51.617Z,31.23
2023-02-24T19:13:20.173Z,37.47
2023-02-24T19:15:49.481Z,34.50
2023-02-24T19:18:18.015Z,46.27
2023-02-24T19:20:45.989Z,46.53
2023-02-24T19:23:16.323Z,48.27
2023-02-24T19:25:44.400Z,38.57
2023-02-24T19:28:12.453Z,39.60
2023-02-24T19:30:41.003Z,41.27
2023-02-24T19:33:12.599Z,49.17
2023-02-24T19:35:42.306Z,48.47
2023-02-24T19:38:10.277Z,51.37
2023-02-24T19:40:38.385Z,53.63
2023-02-24T19:43:06.952Z,57.00
2023-02-24T19:45:35.237Z,52.00
2023-02-24T19:48:03.320Z,52.00
2023-02-24T19:50:32.893Z,51.60
2023-02-24T19:53:01.080Z,65.57
2023-02-24T19:55:29.449Z,59.57
2023-02-24T19:57:57.555Z,61.20
2023-02-24T20:00:25.682Z,55.20
2023-02-24T20:02:56.363Z,50.70
2023-02-24T20:05:24.830Z,50.10
2023-02-24T20:07:54.398Z,47.47
2023-02-24T20:10:23.649Z,51.27
2023-02-24T20:12:51.813Z,50.90
2023-02-24T20:15:20.028Z,61.20
2023-02-24T20:17:49.900Z,58.20
2023-02-24T20:20:18.120Z,53.83
2023-02-24T20:22:46.156Z,53.00
2023-02-24T20:25:15.751Z,55.17
2023-02-24T20:27:44.009Z,49.17
2023-02-24T20:30:13.465Z,51.27
2023-02-24T20:32:51.656Z,48.47
2023-02-24T20:35:21.013Z,51.43
2023-02-24T20:37:49.012Z,49.23
2023-02-24T20:40:18.628Z,45.53
2023-02-24T20:42:46.615Z,46.53
2023-02-24T20:45:14.589Z,53.60
2023-02-24T20:47:42.647Z,47.23
2023-02-24T20:50:11.100Z,55.97
2023-02-24T20:52:40.102Z,59.50
2023-02-24T20:55:08.851Z,67.50
2023-02-24T20:57:38.120Z,74.63
2023-02-24T21:00:08.166Z,75.80
2023-02-24T21:02:36.742Z,72.40
2023-02-24T21:05:05.055Z,64.33
2023-02-24T21:07:33.008Z,71.33
2023-02-24T21:10:00.975Z,76.57
2023-02-24T21:12:28.949Z,87.73
2023-02-24T21:14:58.258Z,89.27
2023-02-24T21:17:26.232Z,103.97
2023-02-24T21:19:54.202Z,90.57
2023-02-24T21:22:22.171Z,76.17
2023-02-24T21:24:50.222Z,65.37
2023-02-24T21:27:18.146Z,66.37
2023-02-24T21:29:48.895Z,90.90
2023-02-24T21:32:18.592Z,161.73
2023-02-24T21:34:46.786Z,201.13
2023-02-24T21:37:14.872Z,195.73
2023-02-24T21:39:42.919Z,167.27
2023-02-24T21:42:12.073Z,135.17
2023-02-24T21:44:44.391Z,139.53
2023-02-24T21:47:12.698Z,109.50
2023-02-24T21:49:42.055Z,94.17
2023-02-24T21:52:12.137Z,84.40
2023-02-24T21:54:40.272Z,84.70
2023-02-24T21:57:08.937Z,64.73
2023-02-24T21:59:37.178Z,52.03
2023-02-24T22:02:05.167Z,58.87
2023-02-24T22:04:33.720Z,62.37
2023-02-24T22:07:03.130Z,54.40
2023-02-24T22:09:31.026Z,58.60
2023-02-24T22:11:58.926Z,59.00
2023-02-24T22:14:26.856Z,63.73
2023-02-24T22:16:54.843Z,74.27
2023-02-24T22:19:22.761Z,65.03
2023-02-24T22:21:50.814Z,56.70
2023-02-24T22:24:20.284Z,55.00
2023-02-24T22:26:48.198Z,68.77
2023-02-24T22:29:16.109Z,66.63
2023-02-24T22:31:47.626Z,81.10
2023-02-24T22:34:17.150Z,83.80
2023-02-24T22:36:45.098Z,92.53
2023-02-24T22:39:16.528Z,97.30
2023-02-24T22:41:47.415Z,73.33
2023-02-24T22:44:19.091Z,54.73
2023-02-24T22:46:47.227Z,51.03
2023-02-24T22:49:17.536Z,50.57
2023-02-24T22:51:45.663Z,52.13
2023-02-24T22:54:13.596Z,50.07
2023-02-24T22:56:42.275Z,47.83
2023-02-24T22:59:12.611Z,37.90
2023-02-24T23:01:42.586Z,36.87
2023-02-24T23:04:15.374Z,45.23
2023-02-24T23:06:44.494Z,46.13
2023-02-24T23:09:13.223Z,47.80
2023-02-24T23:11:42.392Z,48.83
2023-02-24T23:14:14.748Z,56.40
2023-02-24T23:16:44.434Z,54.13
2023-02-24T23:19:16.050Z,55.53
2023-02-24T23:21:46.585Z,49.60
2023-02-24T23:24:16.334Z,52.57
2023-02-24T23:26:46.036Z,45.30
2023-02-24T23:29:18.811Z,52.27
2023-02-24T23:31:47.572Z,46.33
2023-02-24T23:34:16.324Z,47.90
2023-02-24T23:36:45.926Z,44.83
2023-02-24T23:39:17.319Z,52.43
2023-02-24T23:41:45.445Z,63.80
2023-02-24T23:44:14.775Z,57.00
2023-02-24T23:46:42.776Z,51.43
2023-02-24T23:49:10.780Z,51.67
2023-02-24T23:51:48.119Z,48.13
2023-02-24T23:54:16.982Z,49.83
2023-02-24T23:56:45.135Z,50.83
2023-02-24T23:59:13.108Z,55.30
